createdAt,value
2018-07-08T00:00:44.737Z,49.90
2018-07-08T00:03:14.874Z,50.30
2018-07-08T00:05:45.084Z,50.10
2018-07-08T00:08:15.236Z,50.30
2018-07-08T00:10:56.493Z,50.50
2018-07-08T00:13:26.484Z,50.20
2018-07-08T00:15:56.679Z,50.90
2018-07-08T00:18:27.001Z,50.90
2018-07-08T00:20:57.286Z,50.20
2018-07-08T00:23:27.546Z,50.50
2018-07-08T00:25:57.683Z,50.00
2018-07-08T00:28:27.871Z,50.20
2018-07-08T00:30:57.811Z,50.30
2018-07-08T00:33:28.035Z,50.20
2018-07-08T00:35:58.301Z,50.30
2018-07-08T00:38:28.276Z,50.80
2018-07-08T00:40:58.118Z,50.80
2018-07-08T00:43:31.053Z,50.70
2018-07-08T00:46:00.971Z,50.10
2018-07-08T00:48:31.005Z,51.40
2018-07-08T00:51:01.286Z,51.10
2018-07-08T00:53:31.306Z,51.40
2018-07-08T00:56:01.617Z,51.10
2018-07-08T00:58:31.861Z,51.50
2018-07-08T01:01:02.072Z,51.60
2018-07-08T01:03:32.231Z,52.30
2018-07-08T01:06:02.372Z,53.40
2018-07-08T01:08:32.285Z,53.00
2018-07-08T01:11:02.865Z,52.30
2018-07-08T01:13:32.918Z,52.70
2018-07-08T01:18:32.884Z,53.40
2018-07-08T01:21:02.972Z,53.30
2018-07-08T01:23:32.806Z,53.10
2018-07-08T01:26:12.420Z,53.30
2018-07-08T01:28:43.376Z,53.20
2018-07-08T01:31:13.698Z,53.40
2018-07-08T01:33:44.240Z,53.30
2018-07-08T01:36:14.320Z,53.50
2018-07-08T01:38:44.690Z,54.60
2018-07-08T01:41:14.871Z,54.60
2018-07-08T01:43:45.066Z,54.60
2018-07-08T01:46:15.261Z,54.20
2018-07-08T01:48:45.417Z,54.20
2018-07-08T01:51:15.786Z,54.30
2018-07-08T01:53:45.891Z,54.90
2018-07-08T01:56:17.040Z,54.50
2018-07-08T01:58:47.621Z,55.00
2018-07-08T02:01:17.526Z,55.30
2018-07-08T02:03:47.876Z,55.10
2018-07-08T02:06:17.878Z,55.50
2018-07-08T02:08:48.121Z,55.30
2018-07-08T02:11:18.176Z,55.60
2018-07-08T02:13:48.488Z,56.40
2018-07-08T02:16:18.735Z,56.60
2018-07-08T02:18:48.732Z,57.40
2018-07-08T02:21:19.052Z,56.60
2018-07-08T02:23:49.027Z,56.70
2018-07-08T02:26:19.355Z,57.10
2018-07-08T02:28:49.526Z,58.00
2018-07-08T02:31:19.837Z,57.80
2018-07-08T02:33:50.076Z,58.00
2018-07-08T02:36:20.318Z,57.70
2018-07-08T02:38:50.374Z,58.00
2018-07-08T02:41:20.580Z,58.60
2018-07-08T02:43:50.808Z,58.60
2018-07-08T02:46:21.017Z,59.60
2018-07-08T02:48:51.357Z,58.70
2018-07-08T02:51:21.514Z,58.70
2018-07-08T02:53:51.703Z,59.10
2018-07-08T02:56:21.791Z,58.50
2018-07-08T02:58:51.951Z,59.10
2018-07-08T03:01:22.713Z,59.30
2018-07-08T03:03:53.272Z,59.00
2018-07-08T03:06:23.522Z,58.80
2018-07-08T03:08:53.816Z,59.00
2018-07-08T03:11:23.859Z,59.00
2018-07-08T03:13:54.173Z,60.00
2018-07-08T03:16:24.307Z,60.00
2018-07-08T03:18:54.334Z,59.80
2018-07-08T03:21:24.657Z,59.90
2018-07-08T03:23:55.866Z,60.80
2018-07-08T03:26:27.261Z,61.00
2018-07-08T03:28:58.183Z,61.40
2018-07-08T03:31:29.331Z,60.90
2018-07-08T03:34:00.504Z,61.40
2018-07-08T03:36:31.712Z,61.20
2018-07-08T03:39:02.762Z,60.90
2018-07-08T03:41:34.021Z,60.90
2018-07-08T03:50:39.181Z,60.40
2018-07-08T03:53:09.428Z,60.60
2018-07-08T03:55:40.472Z,60.40
2018-07-08T03:58:11.640Z,60.40
2018-07-08T04:00:42.530Z,60.00
2018-07-08T04:03:13.331Z,60.10
2018-07-08T04:08:14.082Z,60.40
2018-07-08T04:10:43.854Z,60.80
2018-07-08T04:13:13.789Z,60.80
2018-07-08T04:15:44.127Z,60.90
2018-07-08T04:18:14.218Z,61.30
2018-07-08T04:20:44.308Z,61.30
2018-07-08T04:23:14.688Z,61.80
2018-07-08T04:25:44.757Z,61.70
2018-07-08T04:28:14.777Z,61.60
2018-07-08T04:30:44.586Z,61.60
2018-07-08T04:33:14.566Z,61.60
2018-07-08T04:35:44.728Z,61.90
2018-07-08T04:38:14.958Z,62.00
2018-07-08T04:40:45.125Z,62.10
2018-07-08T04:43:15.264Z,62.10
2018-07-08T04:45:46.116Z,62.60
2018-07-08T04:48:16.356Z,62.20
2018-07-08T04:50:46.291Z,61.40
2018-07-08T04:53:16.276Z,61.80
2018-07-08T04:55:46.308Z,61.90
2018-07-08T04:58:16.533Z,61.80
2018-07-08T05:00:46.595Z,61.50
2018-07-08T05:03:16.514Z,62.20
2018-07-08T05:08:16.297Z,62.00
2018-07-08T05:10:46.506Z,61.70
2018-07-08T05:13:16.593Z,61.60
2018-07-08T05:15:46.518Z,61.70
2018-07-08T05:18:17.192Z,61.20
2018-07-08T05:20:47.327Z,62.10
2018-07-08T05:23:17.444Z,61.80
2018-07-08T05:25:47.487Z,62.10
2018-07-08T05:28:17.802Z,63.30
2018-07-08T05:30:47.916Z,62.40
2018-07-08T05:33:18.093Z,62.20
2018-07-08T05:35:48.494Z,62.70
2018-07-08T05:38:18.125Z,63.20
2018-07-08T05:40:48.385Z,63.50
2018-07-08T05:43:18.337Z,63.00
2018-07-08T05:45:48.357Z,63.10
2018-07-08T05:48:18.403Z,63.20
2018-07-08T05:50:48.579Z,63.20
2018-07-08T05:53:18.759Z,63.30
2018-07-08T05:55:49.033Z,63.10
2018-07-08T05:58:19.257Z,62.80
2018-07-08T06:00:49.347Z,63.50
2018-07-08T06:03:19.806Z,63.30
2018-07-08T06:05:49.863Z,62.50
2018-07-08T06:08:19.969Z,62.90
2018-07-08T06:10:50.231Z,63.50
2018-07-08T06:13:20.343Z,62.60
2018-07-08T06:15:50.603Z,63.20
2018-07-08T06:18:20.681Z,63.20
2018-07-08T06:20:50.718Z,62.90
2018-07-08T06:25:50.923Z,62.80
2018-07-08T06:28:21.039Z,62.90
2018-07-08T06:30:51.307Z,62.30
2018-07-08T06:33:21.278Z,62.50
2018-07-08T06:35:51.212Z,67.70
2018-07-08T06:38:21.342Z,65.90
2018-07-08T06:40:51.653Z,61.30
2018-07-08T06:43:21.746Z,58.60
2018-07-08T06:45:51.907Z,56.40
2018-07-08T06:48:22.135Z,54.30
2018-07-08T06:50:52.578Z,56.50
2018-07-08T06:53:22.905Z,56.70
2018-07-08T06:55:52.907Z,55.50
2018-07-08T06:58:23.138Z,56.60
2018-07-08T07:00:53.308Z,56.60
2018-07-08T07:03:23.339Z,56.00
2018-07-08T07:05:53.544Z,56.00
2018-07-08T07:08:23.827Z,55.60
2018-07-08T07:10:53.962Z,57.30
2018-07-08T07:13:24.181Z,54.70
2018-07-08T07:15:54.434Z,53.70
2018-07-08T07:18:24.383Z,53.40
2018-07-08T07:20:54.727Z,51.10
2018-07-08T07:23:24.897Z,49.40
2018-07-08T07:25:54.998Z,51.00
2018-07-08T07:28:25.203Z,48.30
2018-07-08T07:30:55.596Z,47.30
2018-07-08T07:33:25.810Z,46.20
2018-07-08T07:35:55.898Z,46.00
2018-07-08T07:38:26.107Z,47.10
2018-07-08T07:40:56.287Z,46.50
2018-07-08T07:43:26.378Z,46.30
2018-07-08T07:45:56.313Z,46.90
2018-07-08T07:48:26.463Z,45.80
2018-07-08T07:50:57.069Z,45.10
2018-07-08T07:53:27.089Z,46.50
2018-07-08T07:55:57.419Z,46.80
2018-07-08T07:58:27.569Z,45.80
2018-07-08T08:00:57.821Z,47.20
2018-07-08T08:03:28.033Z,48.30
2018-07-08T08:05:58.300Z,48.10
2018-07-08T08:08:28.440Z,46.20
2018-07-08T08:10:58.722Z,48.20
2018-07-08T08:13:28.853Z,46.00
2018-07-08T08:15:58.894Z,47.70
2018-07-08T08:18:29.115Z,47.00
2018-07-08T08:20:59.597Z,48.00
2018-07-08T08:23:29.743Z,45.60
2018-07-08T08:25:59.928Z,45.80
2018-07-08T08:28:30.466Z,43.40
2018-07-08T08:31:00.558Z,45.20
2018-07-08T08:33:30.985Z,47.30
2018-07-08T08:36:01.545Z,46.60
2018-07-08T08:38:31.998Z,46.10
2018-07-08T08:41:02.080Z,46.70
2018-07-08T08:43:32.245Z,46.80
2018-07-08T08:46:02.591Z,43.20
2018-07-08T08:48:32.606Z,45.90
2018-07-08T08:51:02.740Z,41.70
2018-07-08T08:53:32.853Z,42.80
2018-07-08T08:56:11.518Z,44.90
2018-07-08T08:58:42.240Z,43.10
2018-07-08T09:01:12.410Z,44.70
2018-07-08T09:03:42.573Z,42.40
2018-07-08T09:06:12.701Z,40.80
2018-07-08T09:08:42.886Z,41.10
2018-07-08T09:11:13.105Z,38.90
2018-07-08T09:13:45.284Z,40.80
2018-07-08T09:16:15.434Z,41.60
2018-07-08T09:18:45.505Z,41.30
2018-07-08T09:21:15.696Z,40.30
2018-07-08T09:23:45.576Z,41.70
2018-07-08T09:26:15.386Z,41.30
2018-07-08T09:28:45.459Z,41.50
2018-07-08T09:31:15.677Z,42.30
2018-07-08T09:33:45.912Z,42.20
2018-07-08T09:36:16.044Z,42.60
2018-07-08T09:38:46.436Z,41.90
2018-07-08T09:41:17.645Z,41.40
2018-07-08T09:43:47.981Z,41.80
2018-07-08T09:46:20.004Z,42.40
2018-07-08T09:48:50.605Z,42.20
2018-07-08T09:51:21.240Z,38.20
2018-07-08T09:53:52.330Z,38.90
2018-07-08T09:56:23.508Z,38.60
2018-07-08T09:58:54.476Z,38.10
2018-07-08T10:01:25.754Z,36.90
2018-07-08T10:03:56.529Z,36.20
2018-07-08T10:06:28.015Z,37.10
2018-07-08T10:08:58.755Z,38.40
2018-07-08T10:20:39.098Z,38.70
2018-07-08T10:23:09.389Z,37.70
2018-07-08T10:25:39.601Z,38.20
2018-07-08T10:28:16.146Z,36.10
2018-07-08T10:30:46.385Z,32.50
2018-07-08T10:33:16.493Z,34.70
2018-07-08T10:35:59.002Z,34.70
2018-07-08T10:38:29.507Z,33.40
2018-07-08T10:40:59.882Z,32.70
2018-07-08T10:43:29.940Z,33.60
2018-07-08T10:45:59.962Z,35.20
2018-07-08T10:48:30.220Z,34.60
2018-07-08T10:51:00.604Z,34.00
2018-07-08T10:53:30.734Z,32.30
2018-07-08T10:56:00.875Z,32.00
2018-07-08T10:58:31.069Z,30.80
2018-07-08T11:01:02.815Z,31.20
2018-07-08T11:03:33.229Z,33.20
2018-07-08T11:06:03.330Z,32.70
2018-07-08T11:08:33.681Z,32.50
2018-07-08T11:11:04.018Z,33.60
2018-07-08T11:13:34.139Z,33.40
2018-07-08T11:16:04.344Z,34.20
2018-07-08T11:18:34.422Z,31.80
2018-07-08T11:21:04.671Z,32.00
2018-07-08T11:23:34.653Z,32.70
2018-07-08T11:28:08.008Z,30.00
2018-07-08T11:30:38.080Z,29.60
2018-07-08T11:33:09.313Z,30.10
2018-07-08T11:35:39.498Z,28.60
2018-07-08T11:38:09.846Z,30.10
2018-07-08T11:40:40.058Z,31.20
2018-07-08T11:43:10.389Z,30.10
2018-07-08T11:45:40.474Z,31.00
2018-07-08T11:48:10.912Z,32.00
2018-07-08T11:50:42.278Z,30.60
2018-07-08T11:53:13.427Z,30.70
2018-07-08T11:55:44.231Z,31.20
2018-07-08T12:00:38.577Z,31.30
2018-07-08T12:03:08.817Z,29.70
2018-07-08T12:05:39.903Z,32.00
2018-07-08T12:08:10.033Z,30.10
2018-07-08T12:10:40.283Z,30.60
2018-07-08T12:13:10.221Z,30.50
2018-07-08T12:15:40.776Z,31.80
2018-07-08T12:18:10.950Z,31.70
2018-07-08T12:20:41.144Z,32.40
2018-07-08T12:23:11.305Z,31.00
2018-07-08T12:25:41.406Z,30.90
2018-07-08T12:28:11.638Z,30.70
2018-07-08T12:30:42.050Z,33.10
2018-07-08T12:33:12.249Z,33.50
2018-07-08T12:35:42.425Z,31.60
2018-07-08T12:38:12.457Z,33.70
2018-07-08T12:40:42.749Z,35.00
2018-07-08T12:43:13.034Z,34.10
2018-07-08T12:45:43.209Z,32.90
2018-07-08T12:48:13.233Z,33.90
2018-07-08T12:50:43.586Z,34.00
2018-07-08T12:53:13.601Z,34.00
2018-07-08T12:55:43.923Z,33.90
2018-07-08T12:58:14.235Z,33.60
2018-07-08T13:00:44.146Z,33.60
2018-07-08T13:03:15.439Z,34.40
2018-07-08T13:08:16.859Z,33.20
2018-07-08T13:13:18.911Z,32.60
2018-07-08T13:15:49.284Z,32.30
2018-07-08T13:18:19.455Z,33.60
2018-07-08T13:20:49.709Z,35.10
2018-07-08T13:23:19.939Z,35.00
2018-07-08T13:25:50.159Z,35.10
2018-07-08T13:30:50.538Z,34.50
2018-07-08T13:33:20.585Z,34.60
2018-07-08T13:35:51.042Z,35.30
2018-07-08T13:38:21.115Z,35.90
2018-07-08T13:40:51.106Z,35.20
2018-07-08T13:43:21.128Z,33.90
2018-07-08T13:45:51.496Z,34.10
2018-07-08T13:48:21.826Z,33.30
2018-07-08T13:50:52.031Z,35.20
2018-07-08T13:53:22.180Z,34.60
2018-07-08T13:55:52.445Z,34.00
2018-07-08T13:58:22.624Z,34.60
2018-07-08T14:00:52.850Z,34.30
2018-07-08T14:03:23.161Z,33.10
2018-07-08T14:05:53.270Z,33.50
2018-07-08T14:08:23.385Z,33.90
2018-07-08T14:10:53.605Z,33.50
2018-07-08T14:13:23.727Z,34.90
2018-07-08T14:15:54.086Z,34.00
2018-07-08T14:18:24.284Z,33.20
2018-07-08T14:20:54.440Z,31.30
2018-07-08T14:23:24.549Z,31.50
2018-07-08T14:25:54.820Z,31.00
2018-07-08T14:28:25.089Z,32.50
2018-07-08T14:30:55.070Z,31.10
2018-07-08T14:35:56.847Z,32.30
2018-07-08T14:38:26.866Z,32.40
2018-07-08T14:40:56.961Z,32.20
2018-07-08T14:43:27.051Z,32.70
2018-07-08T14:45:57.394Z,31.70
2018-07-08T14:48:27.387Z,31.20
2018-07-08T14:50:57.636Z,32.00
2018-07-08T14:53:27.989Z,31.10
2018-07-08T14:55:58.195Z,31.20
2018-07-08T14:58:28.400Z,31.00
2018-07-08T15:00:58.991Z,31.30
2018-07-08T15:03:29.224Z,31.20
2018-07-08T15:05:59.655Z,30.70
2018-07-08T15:08:30.026Z,32.90
2018-07-08T15:11:00.215Z,31.70
2018-07-08T15:13:30.670Z,31.50
2018-07-08T15:16:01.024Z,29.10
2018-07-08T15:18:31.291Z,29.70
2018-07-08T15:21:01.950Z,30.10
2018-07-08T15:23:32.316Z,30.50
2018-07-08T15:26:02.401Z,30.00
2018-07-08T15:28:32.716Z,29.80
2018-07-08T15:31:02.437Z,29.70
2018-07-08T15:33:32.945Z,29.60
2018-07-08T15:36:03.260Z,30.30
2018-07-08T15:38:33.291Z,30.00
2018-07-08T15:41:03.445Z,30.00
2018-07-08T15:43:34.535Z,30.10
2018-07-08T15:46:05.040Z,29.90
2018-07-08T15:48:35.216Z,29.90
2018-07-08T15:51:05.390Z,29.70
2018-07-08T15:53:35.450Z,29.80
2018-07-08T15:56:05.892Z,29.90
2018-07-08T15:58:36.068Z,28.70
2018-07-08T16:01:06.585Z,29.20
2018-07-08T16:03:38.797Z,29.20
2018-07-08T16:06:08.840Z,29.50
2018-07-08T16:08:39.176Z,29.40
2018-07-08T16:11:09.741Z,29.80
2018-07-08T16:13:40.009Z,29.50
2018-07-08T16:16:10.122Z,28.80
2018-07-08T16:18:40.508Z,28.10
2018-07-08T16:21:11.670Z,27.40
2018-07-08T16:23:42.591Z,27.20
2018-07-08T16:28:44.506Z,26.20
2018-07-08T16:31:14.811Z,26.40
2018-07-08T16:33:45.036Z,26.40
2018-07-08T16:36:15.045Z,26.10
2018-07-08T16:38:45.247Z,26.00
2018-07-08T16:41:15.276Z,25.90
2018-07-08T16:43:45.336Z,25.50
2018-07-08T16:46:20.120Z,25.60
2018-07-08T16:48:50.372Z,25.80
2018-07-08T16:51:20.605Z,25.20
2018-07-08T16:56:20.269Z,25.10
2018-07-08T16:58:50.531Z,25.30
2018-07-08T17:03:45.412Z,24.90
2018-07-08T17:06:15.415Z,24.70
2018-07-08T17:08:45.677Z,24.80
2018-07-08T17:11:15.816Z,24.90
2018-07-08T17:13:45.961Z,24.90
2018-07-08T17:16:16.202Z,25.20
2018-07-08T17:18:46.339Z,25.10
2018-07-08T17:21:16.409Z,25.60
2018-07-08T17:23:46.526Z,25.50
2018-07-08T17:26:17.921Z,25.30
2018-07-08T17:28:48.728Z,25.30
2018-07-08T17:31:18.977Z,25.10
2018-07-08T17:33:49.316Z,25.30
2018-07-08T17:36:19.452Z,25.10
2018-07-08T17:38:50.480Z,24.90
2018-07-08T17:41:21.217Z,24.80
2018-07-08T17:46:22.966Z,25.30
2018-07-08T17:48:53.807Z,25.20
2018-07-08T17:53:53.683Z,25.30
2018-07-08T17:56:23.895Z,25.80
2018-07-08T17:58:54.007Z,26.00
2018-07-08T18:01:24.507Z,26.20
2018-07-08T18:03:54.742Z,25.90
2018-07-08T18:06:24.819Z,26.20
2018-07-08T18:08:55.166Z,26.50
2018-07-08T18:11:25.571Z,26.60
2018-07-08T18:13:55.858Z,26.40
2018-07-08T18:16:26.315Z,26.40
2018-07-08T18:18:56.793Z,26.20
2018-07-08T18:21:27.016Z,27.30
2018-07-08T18:23:57.605Z,27.20
2018-07-08T18:26:27.796Z,27.90
2018-07-08T18:28:58.366Z,28.60
2018-07-08T18:31:28.565Z,28.50
2018-07-08T18:36:29.313Z,28.70
2018-07-08T18:38:59.661Z,29.30
2018-07-08T18:41:29.959Z,29.60
2018-07-08T18:44:00.136Z,29.70
2018-07-08T18:46:30.122Z,30.50
2018-07-08T18:49:00.415Z,30.60
2018-07-08T18:51:30.662Z,31.40
2018-07-08T18:54:00.917Z,32.10
2018-07-08T18:56:31.206Z,32.70
2018-07-08T18:59:01.748Z,33.40
2018-07-08T19:01:32.038Z,33.60
2018-07-08T19:04:02.027Z,34.10
2018-07-08T19:06:32.212Z,34.40
2018-07-08T19:09:02.353Z,34.50
2018-07-08T19:11:32.810Z,34.80
2018-07-08T19:14:03.105Z,35.40
2018-07-08T19:16:33.386Z,36.80
2018-07-08T19:24:58.590Z,36.80
2018-07-08T19:29:58.725Z,37.80
2018-07-08T19:32:29.088Z,38.00
2018-07-08T19:35:00.486Z,37.60
2018-07-08T19:37:30.707Z,37.40
2018-07-08T19:42:31.469Z,37.60
2018-07-08T19:45:01.883Z,37.50
2018-07-08T19:47:32.037Z,37.00
2018-07-08T19:50:02.163Z,38.60
2018-07-08T19:52:32.418Z,37.80
2018-07-08T19:55:02.679Z,37.60
2018-07-08T19:57:33.777Z,37.50
2018-07-08T20:00:03.790Z,38.00
2018-07-08T20:02:33.898Z,37.80
2018-07-08T20:05:04.370Z,37.90
2018-07-08T20:07:34.568Z,38.30
2018-07-08T20:10:04.844Z,38.00
2018-07-08T20:12:35.336Z,39.20
2018-07-08T20:15:05.346Z,38.30
2018-07-08T20:17:35.628Z,38.10
2018-07-08T20:22:35.842Z,38.60
2018-07-08T20:25:05.968Z,38.80
2018-07-08T20:27:36.242Z,38.80
2018-07-08T20:30:06.551Z,38.30
2018-07-08T20:32:36.938Z,39.10
2018-07-08T20:35:07.750Z,39.50
2018-07-08T20:37:37.311Z,39.70
2018-07-08T20:40:07.478Z,39.80
2018-07-08T20:42:38.156Z,39.00
2018-07-08T20:45:08.665Z,40.00
2018-07-08T20:47:38.714Z,39.50
2018-07-08T20:50:08.812Z,40.30
2018-07-08T20:52:39.156Z,40.70
2018-07-08T20:55:09.214Z,40.20
2018-07-08T20:57:39.465Z,40.60
2018-07-08T21:00:09.537Z,40.20
2018-07-08T21:02:39.672Z,40.40
2018-07-08T21:05:09.875Z,40.40
2018-07-08T21:07:40.271Z,40.70
2018-07-08T21:12:40.670Z,40.70
2018-07-08T21:15:10.877Z,41.10
2018-07-08T21:17:41.007Z,41.60
2018-07-08T21:20:11.072Z,41.50
2018-07-08T21:25:10.554Z,41.50
2018-07-08T21:27:40.385Z,42.30
2018-07-08T21:30:10.830Z,42.30
2018-07-08T21:32:41.739Z,43.00
2018-07-08T21:40:38.660Z,43.20
2018-07-08T21:43:08.657Z,42.90
2018-07-08T21:45:39.457Z,42.80
2018-07-08T21:48:09.657Z,43.00
2018-07-08T21:50:39.793Z,43.10
2018-07-08T21:53:10.000Z,43.60
2018-07-08T21:55:40.143Z,44.00
2018-07-08T21:58:10.358Z,44.20
2018-07-08T22:00:55.191Z,44.30
2018-07-08T22:03:26.631Z,44.40
2018-07-08T22:05:57.163Z,44.10
2018-07-08T22:10:38.577Z,44.20
2018-07-08T22:13:08.652Z,44.20
2018-07-08T22:18:08.223Z,44.80
2018-07-08T22:20:38.291Z,44.80
2018-07-08T22:23:08.481Z,44.70
2018-07-08T22:25:38.280Z,44.90
2018-07-08T22:28:08.170Z,45.20
2018-07-08T22:30:38.272Z,45.40
2018-07-08T22:33:09.289Z,45.40
2018-07-08T22:35:39.484Z,45.40
2018-07-08T22:38:09.677Z,45.60
2018-07-08T22:40:40.103Z,45.00
2018-07-08T22:43:10.321Z,45.60
2018-07-08T22:45:40.437Z,45.90
2018-07-08T22:48:10.554Z,46.00
2018-07-08T22:50:40.517Z,46.10
2018-07-08T22:53:10.738Z,45.90
2018-07-08T22:55:41.011Z,46.00
2018-07-08T22:58:11.225Z,45.90
2018-07-08T23:00:57.936Z,46.30
2018-07-08T23:03:48.689Z,46.20
2018-07-08T23:06:19.757Z,46.30
2018-07-08T23:08:50.568Z,46.20
2018-07-08T23:11:21.385Z,46.00
2018-07-08T23:13:52.297Z,46.50
2018-07-08T23:16:23.102Z,46.30
2018-07-08T23:18:53.337Z,46.60
2018-07-08T23:21:23.925Z,46.50
2018-07-08T23:23:54.144Z,46.80
2018-07-08T23:26:24.327Z,46.70
2018-07-08T23:28:54.606Z,46.50
2018-07-08T23:31:24.801Z,46.90
2018-07-08T23:33:54.773Z,47.20
2018-07-08T23:36:25.177Z,47.00
2018-07-08T23:38:55.326Z,47.10
2018-07-08T23:41:25.480Z,46.70
2018-07-08T23:43:55.764Z,47.30
2018-07-08T23:46:25.848Z,47.50
2018-07-08T23:48:55.868Z,47.60
2018-07-08T23:51:26.245Z,47.50
2018-07-08T23:53:56.535Z,47.90
2018-07-08T23:56:26.476Z,48.00
2018-07-08T23:58:56.812Z,48.30
